createdAt,value
2019-03-27T00:03:31.177Z,0
2019-03-27T00:09:31.338Z,0
2019-03-27T00:12:30.791Z,0
2019-03-27T00:15:30.700Z,0
2019-03-27T00:18:31.357Z,0
2019-03-27T00:21:36.357Z,0
2019-03-27T00:27:30.353Z,0
2019-03-27T00:30:31.669Z,0
2019-03-27T00:33:31.697Z,0
2019-03-27T00:39:31.416Z,0
2019-03-27T00:42:31.394Z,0
2019-03-27T00:45:42.731Z,0
2019-03-27T00:48:31.767Z,0
2019-03-27T00:51:31.620Z,0
2019-03-27T00:54:31.867Z,0
2019-03-27T00:57:31.789Z,0
2019-03-27T01:00:59.712Z,0
2019-03-27T01:03:32.275Z,0
2019-03-27T01:06:31.409Z,0
2019-03-27T01:09:31.300Z,0
2019-03-27T01:12:36.369Z,0
2019-03-27T01:15:42.534Z,0
2019-03-27T01:18:31.447Z,0
2019-03-27T01:21:31.510Z,0
2019-03-27T01:24:31.775Z,0
2019-03-27T01:27:31.841Z,0
2019-03-27T01:30:31.113Z,0
2019-03-27T01:33:31.190Z,0
2019-03-27T01:36:31.266Z,0
2019-03-27T01:39:31.216Z,0
2019-03-27T01:42:31.535Z,0
2019-03-27T01:45:31.598Z,0
2019-03-27T01:48:32.420Z,0
2019-03-27T01:51:31.327Z,0
2019-03-27T01:54:31.178Z,0
2019-03-27T01:57:31.307Z,0
2019-03-27T02:00:31.220Z,0
2019-03-27T02:03:31.189Z,0
2019-03-27T02:06:31.206Z,0
2019-03-27T02:09:31.306Z,0
2019-03-27T02:12:31.236Z,0
2019-03-27T02:15:31.761Z,0
2019-03-27T02:18:30.863Z,0
2019-03-27T02:21:30.873Z,0
2019-03-27T02:24:31.714Z,0
2019-03-27T02:27:31.634Z,0
2019-03-27T02:30:31.778Z,0
2019-03-27T02:33:31.975Z,0
2019-03-27T02:36:31.155Z,0
2019-03-27T02:39:31.463Z,0
2019-03-27T02:42:31.616Z,0
2019-03-27T02:45:31.619Z,0
2019-03-27T02:48:31.660Z,0
2019-03-27T02:51:31.918Z,0
2019-03-27T02:54:30.715Z,0
2019-03-27T02:57:31.682Z,0
2019-03-27T03:00:32.854Z,0
2019-03-27T03:03:30.883Z,0
2019-03-27T03:06:30.813Z,0
2019-03-27T03:09:30.878Z,0
2019-03-27T03:12:31.201Z,0
2019-03-27T03:15:32.013Z,0
2019-03-27T03:18:31.363Z,0
2019-03-27T03:21:31.378Z,0
2019-03-27T03:24:31.723Z,0
2019-03-27T03:27:31.797Z,0
2019-03-27T03:30:31.024Z,0
2019-03-27T03:33:31.143Z,0
2019-03-27T03:36:31.281Z,0
2019-03-27T03:39:31.691Z,0
2019-03-27T03:42:31.729Z,0
2019-03-27T03:45:31.797Z,0
2019-03-27T03:48:31.012Z,0
2019-03-27T03:51:31.122Z,0
2019-03-27T03:54:30.957Z,0
2019-03-27T03:57:31.934Z,0
2019-03-27T04:00:32.477Z,0
2019-03-27T04:03:34.384Z,0
2019-03-27T04:06:32.030Z,0
2019-03-27T04:09:31.235Z,0
2019-03-27T04:12:31.288Z,0
2019-03-27T04:15:31.776Z,0
2019-03-27T04:18:30.809Z,0
2019-03-27T04:21:31.067Z,0
2019-03-27T04:24:31.210Z,0
2019-03-27T04:27:36.879Z,0
2019-03-27T04:30:30.802Z,0
2019-03-27T04:33:31.142Z,0
2019-03-27T04:36:31.255Z,0
2019-03-27T04:39:31.585Z,0
2019-03-27T04:42:31.580Z,0
2019-03-27T04:45:31.312Z,1
2019-03-27T04:48:31.557Z,2
2019-03-27T04:51:31.415Z,2
2019-03-27T04:54:31.295Z,5
2019-03-27T04:57:35.786Z,9
2019-03-27T05:00:30.888Z,16
2019-03-27T05:03:31.279Z,27
2019-03-27T05:06:31.010Z,43
2019-03-27T05:09:30.661Z,72
2019-03-27T05:12:31.410Z,107
2019-03-27T05:15:31.481Z,148
2019-03-27T05:18:31.396Z,202
2019-03-27T05:21:31.222Z,271
2019-03-27T05:24:31.332Z,352
2019-03-27T05:27:31.385Z,462
2019-03-27T05:30:32.269Z,594
2019-03-27T05:33:34.971Z,768
2019-03-27T05:36:30.942Z,968
2019-03-27T05:39:31.089Z,1202
2019-03-27T05:42:31.226Z,1525
2019-03-27T05:45:31.570Z,1813
2019-03-27T05:48:31.742Z,2276
2019-03-27T05:51:31.518Z,3032
2019-03-27T05:54:31.362Z,3658
2019-03-27T05:57:31.050Z,3662
2019-03-27T06:00:33.420Z,3244
2019-03-27T06:03:31.651Z,3258
2019-03-27T06:06:31.897Z,3460
2019-03-27T06:09:31.040Z,3792
2019-03-27T06:12:31.149Z,3996
2019-03-27T06:15:31.583Z,4337
2019-03-27T06:18:32.038Z,4670
2019-03-27T06:21:31.364Z,5103
2019-03-27T06:24:32.648Z,5429
2019-03-27T06:27:32.180Z,5671
2019-03-27T06:30:31.457Z,5914
2019-03-27T06:33:31.810Z,6544
2019-03-27T06:36:30.701Z,7168
2019-03-27T06:39:31.673Z,7591
2019-03-27T06:42:31.936Z,8017
2019-03-27T06:45:30.682Z,8798
2019-03-27T06:48:42.084Z,9346
2019-03-27T06:51:42.768Z,8752
2019-03-27T06:54:31.609Z,10665
2019-03-27T06:57:31.995Z,11338
2019-03-27T07:00:38.595Z,12127
2019-03-27T07:03:31.625Z,12925
2019-03-27T07:06:31.572Z,13746
2019-03-27T07:09:31.346Z,14603
2019-03-27T07:12:37.114Z,15437
2019-03-27T07:15:30.895Z,16383
2019-03-27T07:18:42.489Z,17309
2019-03-27T07:21:31.335Z,18447
2019-03-27T07:24:31.287Z,7358
2019-03-27T07:27:31.593Z,6235
2019-03-27T07:30:36.647Z,12384
2019-03-27T07:33:31.524Z,14967
2019-03-27T07:36:31.407Z,20628
2019-03-27T07:39:31.417Z,23136
2019-03-27T07:42:31.503Z,26112
2019-03-27T07:45:31.519Z,27982
2019-03-27T07:48:31.430Z,28878
2019-03-27T07:51:31.299Z,29968
2019-03-27T07:54:31.235Z,31058
2019-03-27T07:57:31.368Z,30488
2019-03-27T08:00:31.280Z,29940
2019-03-27T08:03:31.218Z,30027
2019-03-27T08:06:36.398Z,32444
2019-03-27T08:09:31.297Z,33801
2019-03-27T08:12:31.727Z,32576
2019-03-27T08:15:31.672Z,35119
2019-03-27T08:18:31.676Z,34762
2019-03-27T08:21:33.759Z,32752
2019-03-27T08:24:31.933Z,35788
2019-03-27T08:27:34.218Z,35295
2019-03-27T08:30:32.574Z,32530
2019-03-27T08:33:31.623Z,33544
2019-03-27T08:36:31.653Z,34212
2019-03-27T08:39:31.690Z,38798
2019-03-27T08:42:31.717Z,44740
2019-03-27T08:45:31.503Z,50005
2019-03-27T08:48:31.438Z,54008
2019-03-27T08:51:31.721Z,54612
2019-03-27T08:54:32.393Z,19012
2019-03-27T08:57:31.434Z,12054
2019-03-27T09:01:01.006Z,9768
2019-03-27T09:03:31.869Z,8404
2019-03-27T09:06:36.658Z,7787
2019-03-27T09:09:32.130Z,7089
2019-03-27T09:12:31.605Z,7631
2019-03-27T09:15:32.065Z,7205
2019-03-27T09:18:32.809Z,6514
2019-03-27T09:21:30.635Z,7038
2019-03-27T09:24:31.595Z,8628
2019-03-27T09:27:32.117Z,35537
2019-03-27T09:30:31.462Z,46078
2019-03-27T09:33:31.567Z,54578
2019-03-27T09:36:31.314Z,50738
2019-03-27T09:39:36.473Z,54612
2019-03-27T09:42:31.362Z,54612
2019-03-27T09:45:31.285Z,54612
2019-03-27T09:48:31.216Z,36695
2019-03-27T09:51:32.770Z,45360
2019-03-27T09:54:31.773Z,35810
2019-03-27T09:57:31.667Z,25565
2019-03-27T10:00:59.642Z,11306
2019-03-27T10:03:31.639Z,7969
2019-03-27T10:06:32.007Z,6285
2019-03-27T10:09:31.036Z,5219
2019-03-27T10:12:31.074Z,4388
2019-03-27T10:15:31.351Z,4165
2019-03-27T10:18:31.412Z,4072
2019-03-27T10:21:31.188Z,4355
2019-03-27T10:24:31.010Z,5205
2019-03-27T10:27:31.478Z,6614
2019-03-27T10:30:31.433Z,7602
2019-03-27T10:33:31.369Z,8458
2019-03-27T10:36:31.529Z,9033
2019-03-27T10:39:31.755Z,9608
2019-03-27T10:42:31.568Z,10354
2019-03-27T10:45:31.370Z,10461
2019-03-27T10:48:31.662Z,10155
2019-03-27T10:51:31.676Z,10152
2019-03-27T10:54:31.571Z,10775
2019-03-27T10:57:31.433Z,10340
2019-03-27T11:00:32.740Z,9918
2019-03-27T11:03:31.686Z,9695
2019-03-27T11:06:31.611Z,10215
2019-03-27T11:09:31.377Z,9795
2019-03-27T11:12:31.340Z,23872
2019-03-27T11:15:31.581Z,54612
2019-03-27T11:18:31.691Z,26737
2019-03-27T11:21:31.638Z,54612
2019-03-27T11:24:31.597Z,34592
2019-03-27T11:27:32.440Z,20901
2019-03-27T11:30:40.731Z,24772
2019-03-27T11:33:31.674Z,16888
2019-03-27T11:36:31.574Z,10699
2019-03-27T11:39:31.555Z,7601
2019-03-27T11:42:31.459Z,6121
2019-03-27T11:45:31.460Z,5127
2019-03-27T11:48:31.713Z,4798
2019-03-27T11:51:31.515Z,4490
2019-03-27T11:54:31.471Z,4483
2019-03-27T11:57:31.391Z,4578
2019-03-27T12:00:31.656Z,4649
2019-03-27T12:03:31.813Z,4684
2019-03-27T12:06:30.753Z,5260
2019-03-27T12:09:31.790Z,6450
2019-03-27T12:12:30.670Z,7968
2019-03-27T12:15:42.364Z,8818
2019-03-27T12:18:34.779Z,9010
2019-03-27T12:21:30.637Z,8578
2019-03-27T12:24:31.655Z,8841
2019-03-27T12:27:31.894Z,11904
2019-03-27T12:30:30.944Z,13569
2019-03-27T12:33:30.892Z,12419
2019-03-27T12:36:30.741Z,11954
2019-03-27T12:39:31.691Z,10422
2019-03-27T12:42:31.738Z,8969
2019-03-27T12:45:32.010Z,7768
2019-03-27T12:48:31.240Z,7312
2019-03-27T12:51:31.221Z,7807
2019-03-27T12:54:31.014Z,7507
2019-03-27T12:57:31.122Z,7233
2019-03-27T13:00:31.426Z,7226
2019-03-27T13:03:31.670Z,6607
2019-03-27T13:06:31.570Z,6377
2019-03-27T13:09:31.416Z,5962
2019-03-27T13:12:31.355Z,5452
2019-03-27T13:15:31.561Z,5253
2019-03-27T13:18:31.514Z,5402
2019-03-27T13:21:47.395Z,5847
2019-03-27T13:24:31.226Z,6559
2019-03-27T13:27:31.428Z,7000
2019-03-27T13:30:31.474Z,6739
2019-03-27T13:33:31.261Z,8158
2019-03-27T13:36:31.416Z,8180
2019-03-27T13:39:31.310Z,8108
2019-03-27T13:42:36.243Z,8352
2019-03-27T13:45:31.236Z,8681
2019-03-27T13:48:31.057Z,8849
2019-03-27T13:51:43.390Z,8902
2019-03-27T13:54:31.269Z,8778
2019-03-27T13:57:31.470Z,7937
2019-03-27T14:00:31.608Z,6737
2019-03-27T14:03:31.584Z,6772
2019-03-27T14:06:31.354Z,7946
2019-03-27T14:09:31.377Z,6519
2019-03-27T14:12:31.579Z,6788
2019-03-27T14:15:31.299Z,6057
2019-03-27T14:18:31.288Z,5833
2019-03-27T14:21:31.233Z,6180
2019-03-27T14:24:31.263Z,8579
2019-03-27T14:27:31.262Z,8924
2019-03-27T14:31:03.929Z,8474
2019-03-27T14:33:31.032Z,7649
2019-03-27T14:36:36.170Z,8108
2019-03-27T14:39:35.889Z,7798
2019-03-27T14:42:30.960Z,7759
2019-03-27T14:45:31.186Z,7388
2019-03-27T14:48:31.435Z,7122
2019-03-27T14:51:31.366Z,7069
2019-03-27T14:54:32.435Z,6772
2019-03-27T14:57:31.401Z,6368
2019-03-27T15:00:31.356Z,6704
2019-03-27T15:03:36.363Z,6311
2019-03-27T15:06:31.439Z,6529
2019-03-27T15:09:31.689Z,6394
2019-03-27T15:12:31.777Z,6194
2019-03-27T15:15:30.806Z,5962
2019-03-27T15:18:30.734Z,5691
2019-03-27T15:21:31.653Z,5532
2019-03-27T15:24:31.928Z,5179
2019-03-27T15:27:30.901Z,4625
2019-03-27T15:30:30.903Z,5311
2019-03-27T15:33:30.845Z,5257
2019-03-27T15:36:30.872Z,5401
2019-03-27T15:39:30.883Z,5324
2019-03-27T15:42:30.944Z,5218
2019-03-27T15:45:31.090Z,5259
2019-03-27T15:48:31.151Z,5042
2019-03-27T15:51:31.181Z,4805
2019-03-27T15:54:30.940Z,4711
2019-03-27T15:57:31.094Z,4631
2019-03-27T16:00:31.135Z,4140
2019-03-27T16:03:31.197Z,3847
2019-03-27T16:06:31.094Z,3665
2019-03-27T16:09:31.189Z,3180
2019-03-27T16:12:31.061Z,2889
2019-03-27T16:15:31.227Z,2654
2019-03-27T16:18:32.639Z,2449
2019-03-27T16:21:31.822Z,2299
2019-03-27T16:24:31.207Z,2262
2019-03-27T16:27:31.128Z,2078
2019-03-27T16:30:32.991Z,1919
2019-03-27T16:33:31.082Z,1785
2019-03-27T16:36:30.930Z,1735
2019-03-27T16:39:31.022Z,1679
2019-03-27T16:42:30.942Z,1545
2019-03-27T16:45:30.934Z,1408
2019-03-27T16:48:30.718Z,1305
2019-03-27T16:51:31.808Z,1198
2019-03-27T16:54:30.652Z,1139
2019-03-27T16:57:31.723Z,1079
2019-03-27T17:00:31.911Z,1022
2019-03-27T17:03:31.001Z,953
2019-03-27T17:06:32.526Z,932
2019-03-27T17:09:31.578Z,924
2019-03-27T17:12:33.938Z,884
2019-03-27T17:15:31.047Z,842
2019-03-27T17:18:31.103Z,762
2019-03-27T17:21:31.116Z,633
2019-03-27T17:24:31.175Z,541
2019-03-27T17:27:31.164Z,480
2019-03-27T17:30:34.481Z,434
2019-03-27T17:33:31.484Z,383
2019-03-27T17:36:31.548Z,329
2019-03-27T17:39:31.556Z,274
2019-03-27T17:42:31.372Z,227
2019-03-27T17:45:31.372Z,184
2019-03-27T17:48:31.432Z,146
2019-03-27T17:51:31.615Z,114
2019-03-27T17:54:41.571Z,85
2019-03-27T17:57:31.433Z,60
2019-03-27T18:00:45.648Z,42
2019-03-27T18:03:31.600Z,28
2019-03-27T18:06:33.047Z,18
2019-03-27T18:09:31.172Z,11
2019-03-27T18:12:31.196Z,6
2019-03-27T18:15:36.287Z,3
2019-03-27T18:18:31.315Z,2
2019-03-27T18:21:31.361Z,1
2019-03-27T18:24:31.427Z,0
2019-03-27T18:27:31.250Z,0
2019-03-27T18:30:31.000Z,0
2019-03-27T18:33:33.715Z,0
2019-03-27T18:36:31.252Z,0
2019-03-27T18:39:31.317Z,0
2019-03-27T18:42:31.424Z,0
2019-03-27T18:45:31.614Z,0
2019-03-27T18:48:31.448Z,0
2019-03-27T18:51:31.374Z,0
2019-03-27T18:54:31.262Z,0
2019-03-27T18:57:31.277Z,0
2019-03-27T19:00:31.902Z,0
2019-03-27T19:03:31.113Z,0
2019-03-27T19:06:31.062Z,0
2019-03-27T19:12:31.481Z,0
2019-03-27T19:15:31.599Z,0
2019-03-27T19:18:31.931Z,0
2019-03-27T19:21:30.985Z,0
2019-03-27T19:24:32.650Z,0
2019-03-27T19:27:31.764Z,0
2019-03-27T19:30:31.057Z,0
2019-03-27T19:33:31.101Z,0
2019-03-27T19:36:31.071Z,0
2019-03-27T19:39:35.744Z,0
2019-03-27T19:42:32.088Z,0
2019-03-27T19:45:30.744Z,0
2019-03-27T19:48:31.727Z,0
2019-03-27T19:51:31.788Z,0
2019-03-27T19:54:42.809Z,0
2019-03-27T19:57:30.694Z,0
2019-03-27T20:00:31.943Z,0
2019-03-27T20:03:34.389Z,0
2019-03-27T20:06:31.129Z,0
2019-03-27T20:09:31.274Z,0
2019-03-27T20:12:31.402Z,0
2019-03-27T20:15:31.467Z,0
2019-03-27T20:18:31.466Z,0
2019-03-27T20:21:31.386Z,0
2019-03-27T20:24:43.692Z,0
2019-03-27T20:30:31.340Z,0
2019-03-27T20:33:30.831Z,0
2019-03-27T20:36:30.228Z,0
2019-03-27T20:39:31.245Z,0
2019-03-27T20:42:31.215Z,0
2019-03-27T20:45:31.214Z,0
2019-03-27T20:48:31.130Z,0
2019-03-27T20:54:31.374Z,0
2019-03-27T20:57:31.474Z,0
2019-03-27T21:00:31.654Z,0
2019-03-27T21:03:32.208Z,0
2019-03-27T21:06:31.442Z,0
2019-03-27T21:09:31.509Z,0
2019-03-27T21:12:31.553Z,0
2019-03-27T21:15:31.405Z,0
2019-03-27T21:18:31.243Z,0
2019-03-27T21:21:32.164Z,0
2019-03-27T21:24:31.214Z,0
2019-03-27T21:27:32.538Z,0
2019-03-27T21:30:31.599Z,0
2019-03-27T21:33:31.824Z,0
2019-03-27T21:36:30.679Z,0
2019-03-27T21:39:31.756Z,0
2019-03-27T21:42:31.706Z,0
2019-03-27T21:45:34.865Z,0
2019-03-27T21:48:30.766Z,0
2019-03-27T21:51:32.597Z,0
2019-03-27T21:54:31.387Z,0
2019-03-27T21:57:31.193Z,0
2019-03-27T22:00:41.577Z,0
2019-03-27T22:03:31.616Z,0
2019-03-27T22:06:31.704Z,0
2019-03-27T22:09:31.812Z,0
2019-03-27T22:12:31.259Z,0
2019-03-27T22:15:31.719Z,0
2019-03-27T22:18:30.759Z,0
2019-03-27T22:21:31.882Z,0
2019-03-27T22:24:30.959Z,0
2019-03-27T22:27:31.213Z,0
2019-03-27T22:30:31.407Z,0
2019-03-27T22:33:31.509Z,0
2019-03-27T22:36:31.210Z,0
2019-03-27T22:39:31.247Z,0
2019-03-27T22:42:31.108Z,0
2019-03-27T22:45:31.447Z,0
2019-03-27T22:48:31.584Z,0
2019-03-27T22:51:31.927Z,0
2019-03-27T22:54:31.034Z,0
2019-03-27T22:57:31.239Z,0
2019-03-27T23:00:42.034Z,0
2019-03-27T23:03:34.263Z,0
2019-03-27T23:06:31.549Z,0
2019-03-27T23:09:31.774Z,0
2019-03-27T23:12:30.687Z,0
2019-03-27T23:15:31.723Z,0
2019-03-27T23:18:35.504Z,0
2019-03-27T23:21:31.963Z,0
2019-03-27T23:24:31.054Z,0
2019-03-27T23:27:31.322Z,0
2019-03-27T23:30:31.079Z,0
2019-03-27T23:33:31.061Z,0
2019-03-27T23:36:30.976Z,0
2019-03-27T23:42:31.975Z,0
2019-03-27T23:45:31.485Z,0
2019-03-27T23:48:31.305Z,0
2019-03-27T23:51:31.673Z,0
2019-03-27T23:54:31.522Z,0
2019-03-27T23:57:31.711Z,0
